createdAt,value
2023-02-11T00:01:24.600Z,80.97
2023-02-11T00:03:52.962Z,71.18
2023-02-11T00:06:22.969Z,66.45
2023-02-11T00:08:51.749Z,66.68
2023-02-11T00:11:22.050Z,65.70
2023-02-11T00:13:50.402Z,60.70
2023-02-11T00:16:21.959Z,68.32
2023-02-11T00:18:53.084Z,66.20
2023-02-11T00:21:25.055Z,69.53
2023-02-11T00:23:54.954Z,71.00
2023-02-11T00:26:26.835Z,77.22
2023-02-11T00:28:55.358Z,60.65
2023-02-11T00:31:24.624Z,68.85
2023-02-11T00:33:53.499Z,73.00
2023-02-11T00:36:24.355Z,70.25
2023-02-11T00:38:54.829Z,75.57
2023-02-11T00:41:23.731Z,81.57
2023-02-11T00:43:52.859Z,79.22
2023-02-11T00:46:21.810Z,75.18
2023-02-11T00:48:51.807Z,72.63
2023-02-11T00:51:20.033Z,71.43
2023-02-11T00:53:49.697Z,67.85
2023-02-11T00:56:17.800Z,69.97
2023-02-11T00:58:45.836Z,72.63
2023-02-11T01:01:15.125Z,64.55
2023-02-11T01:03:43.217Z,78.75
2023-02-11T01:06:11.601Z,67.13
2023-02-11T01:08:40.607Z,70.03
2023-02-11T01:11:14.930Z,71.45
2023-02-11T01:13:44.402Z,71.38
2023-02-11T01:16:13.117Z,68.85
2023-02-11T01:18:44.723Z,79.40
2023-02-11T01:21:13.021Z,73.05
2023-02-11T01:23:41.047Z,74.80
2023-02-11T01:26:10.813Z,73.60
2023-02-11T01:28:38.806Z,70.30
2023-02-11T01:31:07.049Z,63.40
2023-02-11T01:33:35.827Z,75.30
2023-02-11T01:36:05.450Z,68.97
2023-02-11T01:38:33.666Z,65.72
2023-02-11T01:41:03.799Z,73.07
2023-02-11T01:43:36.344Z,72.20
2023-02-11T01:46:14.292Z,75.07
2023-02-11T01:48:45.739Z,67.78
2023-02-11T01:51:17.702Z,77.07
2023-02-11T01:54:05.034Z,71.22
2023-02-11T01:56:54.188Z,70.65
2023-02-11T01:59:28.703Z,73.88
2023-02-11T02:02:01.587Z,75.45
2023-02-11T02:04:34.388Z,64.22
2023-02-11T02:07:07.983Z,64.38
2023-02-11T02:09:41.354Z,69.70
2023-02-11T02:12:09.956Z,65.47
2023-02-11T02:14:41.534Z,63.00
2023-02-11T02:17:17.248Z,65.25
2023-02-11T02:20:14.981Z,60.63
2023-02-11T02:23:21.243Z,58.20
2023-02-11T02:26:16.167Z,65.65
2023-02-11T02:29:20.609Z,63.47
2023-02-11T02:32:24.484Z,62.63
2023-02-11T02:34:59.943Z,65.13
2023-02-11T02:37:35.583Z,68.75
2023-02-11T02:40:10.703Z,53.47
2023-02-11T02:42:42.093Z,60.35
2023-02-11T02:45:12.595Z,66.25
2023-02-11T02:47:41.930Z,66.45
2023-02-11T02:50:11.004Z,60.20
2023-02-11T02:52:47.932Z,57.38
2023-02-11T02:55:40.123Z,63.88
2023-02-11T02:58:34.684Z,61.47
2023-02-11T03:01:09.008Z,62.55
2023-02-11T03:03:45.254Z,56.50
2023-02-11T03:06:19.649Z,54.13
2023-02-11T03:08:52.732Z,61.05
2023-02-11T03:11:23.158Z,62.30
2023-02-11T03:13:53.109Z,58.00
2023-02-11T03:16:26.551Z,56.25
2023-02-11T03:19:02.549Z,58.30
2023-02-11T03:21:32.332Z,56.88
2023-02-11T03:24:07.720Z,62.50
2023-02-11T03:26:40.032Z,61.90
2023-02-11T03:29:16.916Z,62.83
2023-02-11T03:31:52.585Z,59.25
2023-02-11T03:34:29.519Z,59.38
2023-02-11T03:37:04.436Z,60.13
2023-02-11T03:39:37.574Z,59.65
2023-02-11T03:42:08.123Z,62.05
2023-02-11T03:44:41.550Z,61.60
2023-02-11T03:47:14.630Z,62.10
2023-02-11T03:49:49.470Z,59.90
2023-02-11T03:52:20.459Z,54.08
2023-02-11T03:54:56.491Z,64.05
2023-02-11T03:57:24.483Z,61.87
2023-02-11T03:59:57.834Z,56.37
2023-02-11T04:02:30.503Z,59.40
2023-02-11T04:05:00.256Z,59.50
2023-02-11T04:07:28.642Z,57.47
2023-02-11T04:09:56.579Z,62.83
2023-02-11T04:12:24.711Z,57.67
2023-02-11T04:14:52.900Z,50.33
2023-02-11T04:17:20.780Z,47.00
2023-02-11T04:19:49.216Z,55.17
2023-02-11T04:22:18.389Z,55.97
2023-02-11T04:24:46.454Z,64.05
2023-02-11T04:27:14.857Z,58.30
2023-02-11T04:29:42.832Z,51.28
2023-02-11T04:32:12.212Z,55.47
2023-02-11T04:34:41.130Z,54.97
2023-02-11T04:37:09.541Z,45.53
2023-02-11T04:39:39.014Z,56.22
2023-02-11T04:42:07.806Z,50.92
2023-02-11T04:44:36.123Z,51.70
2023-02-11T04:47:04.571Z,59.92
2023-02-11T04:49:33.268Z,55.33
2023-02-11T04:52:01.328Z,55.47
2023-02-11T04:54:29.913Z,54.70
2023-02-11T04:56:59.961Z,58.13
2023-02-11T04:59:28.150Z,58.67
2023-02-11T05:01:56.389Z,48.40
2023-02-11T05:04:25.260Z,49.75
2023-02-11T05:06:53.362Z,54.20
2023-02-11T05:09:21.521Z,57.05
2023-02-11T05:11:50.940Z,55.40
2023-02-11T05:14:20.801Z,47.97
2023-02-11T05:16:48.943Z,54.63
2023-02-11T05:19:17.691Z,51.97
2023-02-11T05:22:01.380Z,56.57
2023-02-11T05:24:30.961Z,52.53
2023-02-11T05:26:59.051Z,55.53
2023-02-11T05:29:29.213Z,47.43
2023-02-11T05:31:57.725Z,50.50
2023-02-11T05:34:25.797Z,58.20
2023-02-11T05:36:54.036Z,53.10
2023-02-11T05:39:23.075Z,50.47
2023-02-11T05:41:51.234Z,52.30
2023-02-11T05:44:19.301Z,55.17
2023-02-11T05:46:49.741Z,61.53
2023-02-11T05:49:18.313Z,48.00
2023-02-11T05:51:46.494Z,51.03
2023-02-11T05:54:15.386Z,57.87
2023-02-11T05:56:45.014Z,53.07
2023-02-11T05:59:15.646Z,48.03
2023-02-11T06:01:44.050Z,53.60
2023-02-11T06:04:13.619Z,51.50
2023-02-11T06:06:42.351Z,51.70
2023-02-11T06:09:11.403Z,46.50
2023-02-11T06:11:39.591Z,58.40
2023-02-11T06:14:08.427Z,46.07
2023-02-11T06:16:36.657Z,54.07
2023-02-11T06:19:05.222Z,54.13
2023-02-11T06:21:43.546Z,55.83
2023-02-11T06:24:12.729Z,54.07
2023-02-11T06:26:41.456Z,53.93
2023-02-11T06:29:09.896Z,40.40
2023-02-11T06:31:39.842Z,48.60
2023-02-11T06:34:08.674Z,45.17
2023-02-11T06:36:40.675Z,54.57
2023-02-11T06:39:09.628Z,47.37
2023-02-11T06:41:37.925Z,46.10
2023-02-11T06:44:06.394Z,45.23
2023-02-11T06:46:35.414Z,51.03
2023-02-11T06:49:03.645Z,52.60
2023-02-11T06:51:31.709Z,46.70
2023-02-11T06:54:01.583Z,46.77
2023-02-11T06:56:30.461Z,44.27
2023-02-11T06:58:59.293Z,42.67
2023-02-11T07:01:29.191Z,43.87
2023-02-11T07:03:57.678Z,41.63
2023-02-11T07:06:28.516Z,40.03
2023-02-11T07:08:57.229Z,52.47
2023-02-11T07:11:29.122Z,48.87
2023-02-11T07:14:01.713Z,53.00
2023-02-11T07:16:30.381Z,49.60
2023-02-11T07:18:58.849Z,44.80
2023-02-11T07:21:27.291Z,43.20
2023-02-11T07:23:55.917Z,39.30
2023-02-11T07:26:25.841Z,47.20
2023-02-11T07:28:56.511Z,45.10
2023-02-11T07:31:27.282Z,48.17
2023-02-11T07:33:57.802Z,49.47
2023-02-11T07:36:26.041Z,44.03
2023-02-11T07:38:54.241Z,46.07
2023-02-11T07:41:24.562Z,38.80
2023-02-11T07:43:52.759Z,42.87
2023-02-11T07:46:25.170Z,46.77
2023-02-11T07:48:53.710Z,52.53
2023-02-11T07:51:24.330Z,41.87
2023-02-11T07:53:53.917Z,43.33
2023-02-11T07:56:23.264Z,41.37
2023-02-11T07:58:52.005Z,39.40
2023-02-11T08:01:25.816Z,44.60
2023-02-11T08:03:54.599Z,44.07
2023-02-11T08:06:24.783Z,43.13
2023-02-11T08:08:53.728Z,54.60
2023-02-11T08:11:24.055Z,53.70
2023-02-11T08:13:52.478Z,45.33
2023-02-11T08:16:24.749Z,52.43
2023-02-11T08:18:55.206Z,47.87
2023-02-11T08:21:23.932Z,48.07
2023-02-11T08:23:52.844Z,47.57
2023-02-11T08:26:22.991Z,44.47
2023-02-11T08:28:52.841Z,51.07
2023-02-11T08:31:26.151Z,53.50
2023-02-11T08:33:57.967Z,50.10
2023-02-11T08:36:31.732Z,48.27
2023-02-11T08:39:17.653Z,45.30
2023-02-11T08:41:49.017Z,46.83
2023-02-11T08:44:17.501Z,47.77
2023-02-11T08:46:47.850Z,47.10
2023-02-11T08:49:16.822Z,47.83
2023-02-11T08:51:45.940Z,41.00
2023-02-11T08:54:14.592Z,38.63
2023-02-11T08:56:43.266Z,42.23
2023-02-11T08:59:14.977Z,40.83
2023-02-11T09:01:44.552Z,35.43
2023-02-11T09:04:14.680Z,34.80
2023-02-11T09:06:43.427Z,35.80
2023-02-11T09:09:14.075Z,41.87
2023-02-11T09:11:44.084Z,37.73
2023-02-11T09:14:20.043Z,33.47
2023-02-11T09:16:49.003Z,31.87
2023-02-11T09:19:20.229Z,38.03
2023-02-11T09:21:48.867Z,30.90
2023-02-11T09:24:17.642Z,34.60
2023-02-11T09:26:46.171Z,37.00
2023-02-11T09:29:14.756Z,32.33
2023-02-11T09:31:43.470Z,34.57
2023-02-11T09:34:12.748Z,37.73
2023-02-11T09:36:43.245Z,35.10
2023-02-11T09:39:14.523Z,32.63
2023-02-11T09:42:12.514Z,36.83
2023-02-11T09:44:40.920Z,37.27
2023-02-11T09:47:24.797Z,30.00
2023-02-11T09:49:58.453Z,31.97
2023-02-11T09:52:37.565Z,33.37
2023-02-11T09:55:12.623Z,32.07
2023-02-11T09:57:42.865Z,37.20
2023-02-11T10:00:20.309Z,32.17
2023-02-11T10:03:07.121Z,33.83
2023-02-11T10:05:49.442Z,30.70
2023-02-11T10:08:28.042Z,30.20
2023-02-11T10:11:02.409Z,32.77
2023-02-11T10:13:47.385Z,32.33
2023-02-11T10:16:29.822Z,34.03
2023-02-11T10:19:14.438Z,36.57
2023-02-11T10:21:52.886Z,26.67
2023-02-11T10:24:23.516Z,34.20
2023-02-11T10:26:53.628Z,36.43
2023-02-11T10:29:36.746Z,35.43
2023-02-11T10:32:08.820Z,34.37
2023-02-11T10:34:42.805Z,36.90
2023-02-11T10:37:14.367Z,36.50
2023-02-11T10:39:44.340Z,40.10
2023-02-11T10:42:15.513Z,38.33
2023-02-11T10:44:51.985Z,32.53
2023-02-11T10:47:25.369Z,33.83
2023-02-11T10:49:54.161Z,31.37
2023-02-11T10:52:25.489Z,32.60
2023-02-11T10:55:04.949Z,40.33
2023-02-11T10:57:37.194Z,38.40
2023-02-11T11:00:24.558Z,35.20
2023-02-11T11:02:58.121Z,30.17
2023-02-11T11:05:33.160Z,32.43
2023-02-11T11:08:03.667Z,34.27
2023-02-11T11:10:44.779Z,30.57
2023-02-11T11:13:31.266Z,29.43
2023-02-11T11:16:20.329Z,31.00
2023-02-11T11:18:50.092Z,35.37
2023-02-11T11:21:23.244Z,30.40
2023-02-11T11:23:55.196Z,32.73
2023-02-11T11:26:27.675Z,38.40
2023-02-11T11:29:00.163Z,32.33
2023-02-11T11:31:33.648Z,44.60
2023-02-11T11:34:08.205Z,32.13
2023-02-11T11:36:40.156Z,34.20
2023-02-11T11:39:21.635Z,31.90
2023-02-11T11:41:55.186Z,30.43
2023-02-11T11:44:35.725Z,37.30
2023-02-11T11:47:21.524Z,32.60
2023-02-11T11:49:57.199Z,35.33
2023-02-11T11:52:38.503Z,30.97
2023-02-11T11:55:17.328Z,36.67
2023-02-11T11:57:47.319Z,34.27
2023-02-11T12:00:20.737Z,39.63
2023-02-11T12:03:08.743Z,33.63
2023-02-11T12:05:44.044Z,33.67
2023-02-11T12:08:20.449Z,33.53
2023-02-11T12:10:58.526Z,41.53
2023-02-11T12:13:42.625Z,33.27
2023-02-11T12:16:26.920Z,38.33
2023-02-11T12:19:25.036Z,37.50
2023-02-11T12:22:02.981Z,45.03
2023-02-11T12:24:53.751Z,36.47
2023-02-11T12:27:38.796Z,34.50
2023-02-11T12:30:22.763Z,39.37
2023-02-11T12:33:00.357Z,32.07
2023-02-11T12:35:38.956Z,38.40
2023-02-11T12:38:29.930Z,35.83
2023-02-11T12:41:11.379Z,38.80
2023-02-11T12:43:41.076Z,35.47
2023-02-11T12:46:39.677Z,38.47
2023-02-11T12:49:44.069Z,41.20
2023-02-11T12:52:28.815Z,36.70
2023-02-11T12:55:02.636Z,42.37
2023-02-11T12:57:34.109Z,39.30
2023-02-11T13:00:08.420Z,37.13
2023-02-11T13:02:48.751Z,36.13
2023-02-11T13:05:26.216Z,39.97
2023-02-11T13:07:59.044Z,37.13
2023-02-11T13:10:32.924Z,32.83
2023-02-11T13:13:19.133Z,37.93
2023-02-11T13:15:51.924Z,34.43
2023-02-11T13:18:51.262Z,45.50
2023-02-11T13:21:43.271Z,38.70
2023-02-11T13:24:21.557Z,37.17
2023-02-11T13:26:59.246Z,34.97
2023-02-11T13:29:33.740Z,39.77
2023-02-11T13:32:09.036Z,38.67
2023-02-11T13:35:00.717Z,38.93
2023-02-11T13:37:35.931Z,39.03
2023-02-11T13:40:07.794Z,43.17
2023-02-11T13:42:51.075Z,34.20
2023-02-11T13:45:25.332Z,35.23
2023-02-11T13:47:58.353Z,43.90
2023-02-11T13:50:30.862Z,36.80
2023-02-11T13:53:01.727Z,36.17
2023-02-11T13:55:30.474Z,37.97
2023-02-11T13:58:40.133Z,41.40
2023-02-11T14:01:09.048Z,41.00
2023-02-11T14:03:58.006Z,41.70
2023-02-11T14:06:46.973Z,38.43
2023-02-11T14:09:42.362Z,40.80
2023-02-11T14:12:33.454Z,36.77
2023-02-11T14:15:21.626Z,37.03
2023-02-11T14:17:50.084Z,38.57
2023-02-11T14:20:41.100Z,54.23
2023-02-11T14:23:24.196Z,40.03
2023-02-11T14:26:22.255Z,37.80
2023-02-11T14:28:55.244Z,36.73
2023-02-11T14:31:28.460Z,40.53
2023-02-11T14:34:17.128Z,40.53
2023-02-11T14:37:00.819Z,41.20
2023-02-11T14:39:45.822Z,38.77
2023-02-11T14:42:21.366Z,41.03
2023-02-11T14:44:52.135Z,42.77
2023-02-11T14:47:24.511Z,36.57
2023-02-11T14:49:52.797Z,40.27
2023-02-11T14:52:29.376Z,39.47
2023-02-11T14:55:08.150Z,47.17
2023-02-11T14:57:38.009Z,41.53
2023-02-11T15:00:15.756Z,44.50
2023-02-11T15:02:46.066Z,36.40
2023-02-11T15:05:22.791Z,37.90
2023-02-11T15:07:54.240Z,35.50
2023-02-11T15:10:32.133Z,45.00
2023-02-11T15:13:02.766Z,44.20
2023-02-11T15:15:32.041Z,49.33
2023-02-11T15:18:05.095Z,38.53
2023-02-11T15:20:35.900Z,36.93
2023-02-11T15:23:07.609Z,39.47
2023-02-11T15:25:44.250Z,39.90
2023-02-11T15:28:23.602Z,44.53
2023-02-11T15:30:59.575Z,40.80
2023-02-11T15:33:30.722Z,41.10
2023-02-11T15:35:59.748Z,39.63
2023-02-11T15:38:27.609Z,38.73
2023-02-11T15:41:01.162Z,43.87
2023-02-11T15:43:42.582Z,37.20
2023-02-11T15:46:13.181Z,43.93
2023-02-11T15:48:44.980Z,37.53
2023-02-11T15:51:22.527Z,38.70
2023-02-11T15:53:56.827Z,39.43
2023-02-11T15:56:33.327Z,42.90
2023-02-11T15:59:10.655Z,45.67
2023-02-11T16:01:40.656Z,46.20
2023-02-11T16:04:08.939Z,40.40
2023-02-11T16:06:41.126Z,46.83
2023-02-11T16:09:32.262Z,44.70
2023-02-11T16:12:07.967Z,39.73
2023-02-11T16:14:39.192Z,39.67
2023-02-11T16:17:11.471Z,43.43
2023-02-11T16:19:46.716Z,42.10
2023-02-11T16:22:19.655Z,40.90
2023-02-11T16:25:06.296Z,44.10
2023-02-11T16:28:28.294Z,39.67
2023-02-11T16:31:01.474Z,41.47
2023-02-11T16:33:30.723Z,44.60
2023-02-11T16:36:02.089Z,41.93
2023-02-11T16:38:31.761Z,43.37
2023-02-11T16:40:59.661Z,41.87
2023-02-11T16:43:27.495Z,39.17
2023-02-11T16:45:55.963Z,40.30
2023-02-11T16:48:25.498Z,48.43
2023-02-11T16:50:53.791Z,45.00
2023-02-11T16:53:25.210Z,45.33
2023-02-11T16:55:54.173Z,50.90
2023-02-11T16:58:22.143Z,40.07
2023-02-11T17:00:51.489Z,48.33
2023-02-11T17:03:24.246Z,44.90
2023-02-11T17:05:55.917Z,43.50
2023-02-11T17:08:23.905Z,42.50
2023-02-11T17:10:52.185Z,45.07
2023-02-11T17:13:20.705Z,49.57
2023-02-11T17:15:48.574Z,42.13
2023-02-11T17:18:16.407Z,47.80
2023-02-11T17:20:44.650Z,41.90
2023-02-11T17:23:13.927Z,43.20
2023-02-11T17:25:41.995Z,46.23
2023-02-11T17:28:12.482Z,47.40
2023-02-11T17:30:43.558Z,43.43
2023-02-11T17:33:11.996Z,45.43
2023-02-11T17:35:42.206Z,43.50
2023-02-11T17:38:10.122Z,47.83
2023-02-11T17:40:39.721Z,46.13
2023-02-11T17:43:08.184Z,50.20
2023-02-11T17:45:36.409Z,42.30
2023-02-11T17:48:04.992Z,45.23
2023-02-11T17:50:36.494Z,43.97
2023-02-11T17:53:05.166Z,46.63
2023-02-11T17:55:34.831Z,47.90
2023-02-11T17:58:04.564Z,47.03
2023-02-11T18:00:32.664Z,47.33
2023-02-11T18:03:02.937Z,56.30
2023-02-11T18:05:35.897Z,49.53
2023-02-11T18:08:04.691Z,50.47
2023-02-11T18:10:33.494Z,49.63
2023-02-11T18:13:02.227Z,44.37
2023-02-11T18:15:31.481Z,45.60
2023-02-11T18:17:59.354Z,45.27
2023-02-11T18:20:27.746Z,40.33
2023-02-11T18:22:55.664Z,41.03
2023-02-11T18:25:23.719Z,50.20
2023-02-11T18:27:52.151Z,44.37
2023-02-11T18:30:21.109Z,45.17
2023-02-11T18:32:54.931Z,55.83
2023-02-11T18:35:23.552Z,52.87
2023-02-11T18:37:53.499Z,54.33
2023-02-11T18:40:22.178Z,59.37
2023-02-11T18:42:50.174Z,60.50
2023-02-11T18:45:18.308Z,59.10
2023-02-11T18:47:46.935Z,45.13
2023-02-11T18:50:16.846Z,51.90
2023-02-11T18:52:45.020Z,50.43
2023-02-11T18:55:13.439Z,57.47
2023-02-11T18:57:42.956Z,53.40
2023-02-11T19:00:12.337Z,52.57
2023-02-11T19:02:41.078Z,52.40
2023-02-11T19:05:09.692Z,64.23
2023-02-11T19:07:39.122Z,49.47
2023-02-11T19:10:09.130Z,52.37
2023-02-11T19:12:39.177Z,53.23
2023-02-11T19:15:08.718Z,55.73
2023-02-11T19:17:37.190Z,48.30
2023-02-11T19:20:06.598Z,51.20
2023-02-11T19:22:34.765Z,49.13
2023-02-11T19:25:04.385Z,60.63
2023-02-11T19:27:32.728Z,63.23
2023-02-11T19:30:00.916Z,65.87
2023-02-11T19:32:29.522Z,67.43
2023-02-11T19:34:57.896Z,57.00
2023-02-11T19:37:26.035Z,60.33
2023-02-11T19:39:54.577Z,58.17
2023-02-11T19:42:27.139Z,55.57
2023-02-11T19:44:55.906Z,63.23
2023-02-11T19:47:27.662Z,64.57
2023-02-11T19:49:56.393Z,54.33
2023-02-11T19:52:24.951Z,61.90
2023-02-11T19:54:53.235Z,65.50
2023-02-11T19:57:21.746Z,67.93
2023-02-11T19:59:53.202Z,66.27
2023-02-11T20:02:21.844Z,57.17
2023-02-11T20:04:50.185Z,58.17
2023-02-11T20:07:18.204Z,51.50
2023-02-11T20:09:46.665Z,56.90
2023-02-11T20:12:14.667Z,52.83
2023-02-11T20:14:42.979Z,48.93
2023-02-11T20:17:12.734Z,50.77
2023-02-11T20:19:40.813Z,44.60
2023-02-11T20:22:08.750Z,49.50
2023-02-11T20:24:37.209Z,42.90
2023-02-11T20:27:08.296Z,47.20
2023-02-11T20:29:36.443Z,49.13
2023-02-11T20:32:05.593Z,45.77
2023-02-11T20:34:35.476Z,52.63
2023-02-11T20:37:06.111Z,47.27
2023-02-11T20:39:35.544Z,47.07
2023-02-11T20:42:04.114Z,48.37
2023-02-11T20:44:32.754Z,53.40
2023-02-11T20:47:00.897Z,51.07
2023-02-11T20:49:29.127Z,48.03
2023-02-11T20:51:59.705Z,50.20
2023-02-11T20:54:28.605Z,51.00
2023-02-11T20:56:58.192Z,51.30
2023-02-11T20:59:27.323Z,55.13
2023-02-11T21:01:57.059Z,50.90
2023-02-11T21:04:27.876Z,50.63
2023-02-11T21:06:59.329Z,45.43
2023-02-11T21:09:30.374Z,45.63
2023-02-11T21:11:58.829Z,46.30
2023-02-11T21:14:27.859Z,48.87
2023-02-11T21:16:56.936Z,46.50
2023-02-11T21:19:25.184Z,51.10
2023-02-11T21:21:54.831Z,49.60
2023-02-11T21:24:24.821Z,47.03
2023-02-11T21:26:52.746Z,51.40
2023-02-11T21:29:20.916Z,47.00
2023-02-11T21:31:50.236Z,45.70
2023-02-11T21:34:20.161Z,51.13
2023-02-11T21:36:51.556Z,54.10
2023-02-11T21:39:20.446Z,50.50
2023-02-11T21:41:49.904Z,50.53
2023-02-11T21:44:18.474Z,49.77
2023-02-11T21:46:46.772Z,54.17
2023-02-11T21:49:14.654Z,60.67
2023-02-11T21:51:43.239Z,53.47
2023-02-11T21:54:12.741Z,58.83
2023-02-11T21:56:41.018Z,55.67
2023-02-11T21:59:14.321Z,56.37
2023-02-11T22:01:42.464Z,59.90
2023-02-11T22:04:11.341Z,61.60
2023-02-11T22:06:40.424Z,53.17
2023-02-11T22:09:11.500Z,62.60
2023-02-11T22:11:39.475Z,52.90
2023-02-11T22:14:08.059Z,57.27
2023-02-11T22:16:37.458Z,60.23
2023-02-11T22:19:07.892Z,57.80
2023-02-11T22:21:35.781Z,57.77
2023-02-11T22:24:03.848Z,56.40
2023-02-11T22:26:32.197Z,52.30
2023-02-11T22:29:00.279Z,54.33
2023-02-11T22:31:30.089Z,62.80
2023-02-11T22:34:00.767Z,57.40
2023-02-11T22:36:30.400Z,56.40
2023-02-11T22:39:02.223Z,54.10
2023-02-11T22:41:30.391Z,57.40
2023-02-11T22:43:58.844Z,61.20
2023-02-11T22:46:27.831Z,59.30
2023-02-11T22:48:55.975Z,57.87
2023-02-11T22:51:27.231Z,56.10
2023-02-11T22:53:58.007Z,67.00
2023-02-11T22:56:27.088Z,60.20
2023-02-11T22:58:58.853Z,73.27
2023-02-11T23:01:27.605Z,67.77
2023-02-11T23:03:56.246Z,64.70
2023-02-11T23:06:25.565Z,64.30
2023-02-11T23:08:53.909Z,61.77
2023-02-11T23:11:26.161Z,56.30
2023-02-11T23:13:55.221Z,63.00
2023-02-11T23:16:25.562Z,58.77
2023-02-11T23:18:53.958Z,62.83
2023-02-11T23:21:24.726Z,67.93
2023-02-11T23:23:57.939Z,63.77
2023-02-11T23:26:27.106Z,68.53
2023-02-11T23:28:55.404Z,66.13
2023-02-11T23:31:27.778Z,61.73
2023-02-11T23:33:56.188Z,61.47
2023-02-11T23:36:24.579Z,63.60
2023-02-11T23:38:53.561Z,57.90
2023-02-11T23:41:23.922Z,64.00
2023-02-11T23:43:53.265Z,69.60
2023-02-11T23:46:23.373Z,56.50
2023-02-11T23:48:52.728Z,56.30
2023-02-11T23:51:20.927Z,56.70
2023-02-11T23:53:50.147Z,74.23
2023-02-11T23:56:20.780Z,78.53
2023-02-11T23:58:53.789Z,72.57
